Lehmann Sound — V2EM3 — position and weather

sailwx.info

Track history (hours):
 
Tides and Currents Weather Stations Pressure Air Temp Water Temp Dewpoint Dewpoint Depression Visibility Wind Speed Wind Dir Waves Ship Positions

Lehmann Sound

Last reported at 2017-Jun-23 22:24 UTC. Time now 2017-Jun-25 14:07 UTC.
Position N 55°37' E 018°47'.

Length 90 m; draft 4 m.

Type: Cargo ship. MMSI: 305476000.

Date/timePositionNaut miles runAvg speedWind from/ knotsBaromVisibWave heightAir tempDewpointWater temp
2017-Jun-23 22:24N 55°37' E 018°47'4 9.0
2017-Jun-23 21:56N 55°37' E 018°39'5 9.5
2017-Jun-23 21:23N 55°36' E 018°30'4 9.5
2017-Jun-23 21:01N 55°36' E 018°24'5 9.6
2017-Jun-23 20:29N 55°35' E 018°15'5 9.6
2017-Jun-23 20:00N 55°35' E 018°07'5 9.5
2017-Jun-23 19:30N 55°35' E 017°58'5 9.4
2017-Jun-23 19:00N 55°34' E 017°50'5 9.3
2017-Jun-23 18:30N 55°33' E 017°42'5 9.2
2017-Jun-23 18:00N 55°33' E 017°34'4 9.0
2017-Jun-23 17:30N 55°32' E 017°26'4 9.0
2017-Jun-23 17:00N 55°32' E 017°18'5 9.0
2017-Jun-23 16:30N 55°32' E 017°10'4 9.0
2017-Jun-23 16:00N 55°31' E 017°02'4 9.0
2017-Jun-23 15:30N 55°31' E 016°54'5 9.0
2017-Jun-23 15:00N 55°30' E 016°47'9 9.1
2017-Jun-23 14:00N 55°29' E 016°31'5 9.1
2017-Jun-23 13:30N 55°29' E 016°23'5 9.1
2017-Jun-23 13:00N 55°28' E 016°15'5 9.2
2017-Jun-23 12:26N 55°28' E 016°05'4 9.3
2017-Jun-23 12:00N 55°27' E 015°59'5 9.1
2017-Jun-23 11:30N 55°27' E 015°51'4 9.0
2017-Jun-23 11:00N 55°27' E 015°43'4 8.8
2017-Jun-23 10:30N 55°26' E 015°35'4 8.8
2017-Jun-23 10:00N 55°26' E 015°27'4 8.9
2017-Jun-23 09:30N 55°25' E 015°19'4 9.0
2017-Jun-23 09:00N 55°25' E 015°12'4 8.8
2017-Jun-23 08:30N 55°24' E 015°04'4 8.8
2017-Jun-23 08:00N 55°24' E 014°56'4 8.7
2017-Jun-23 07:30N 55°23' E 014°49'4 8.6
2017-Jun-23 07:00N 55°23' E 014°41'4 8.4
2017-Jun-23 06:30N 55°20' E 014°36'4 8.8
2017-Jun-23 06:00N 55°17' E 014°30'4 8.9
2017-Jun-23 05:30N 55°14' E 014°25'4 8.5
2017-Jun-23 05:00N 55°11' E 014°19'4 7.7
2017-Jun-23 04:30N 55°09' E 014°14'4 8.3
2017-Jun-23 04:00N 55°10' E 014°07'4 8.4
2017-Jun-23 03:30N 55°10' E 013°59'4 8.2
2017-Jun-23 03:00N 55°11' E 013°52'5 8.2
2017-Jun-23 02:24N 55°11' E 013°43'3 8.3
2017-Jun-23 02:00N 55°11' E 013°38'4 8.4
2017-Jun-23 01:29N 55°12' E 013°30'4 8.6
2017-Jun-23 01:00N 55°13' E 013°23'4 8.6
2017-Jun-23 00:30N 55°13' E 013°15'4 8.6
2017-Jun-23 00:00N 55°13' E 013°08'4 8.6
2017-Jun-22 23:30N 55°14' E 013°00'4 8.4
2017-Jun-22 23:01N 55°15' E 012°53'4 8.5
2017-Jun-22 22:30N 55°16' E 012°46'4 8.5
2017-Jun-22 22:00N 55°18' E 012°39'4 7.7
2017-Jun-22 21:30N 55°22' E 012°39'4 8.7
2017-Jun-22 21:00N 55°26' E 012°40'4 8.2
2017-Jun-22 20:30N 55°30' E 012°41'4 7.9
2017-Jun-22 20:00N 55°34' E 012°42'4 7.7
2017-Jun-22 19:30N 55°38' E 012°42'4 7.6
2017-Jun-22 19:00N 55°41' E 012°41'4 7.9
2017-Jun-22 18:30N 55°45' E 012°41'4 8.3
2017-Jun-22 18:00N 55°50' E 012°41'4 8.3
2017-Jun-22 17:30N 55°53' E 012°39'4 7.9
2017-Jun-22 17:00N 55°57' E 012°38'4 7.7
2017-Jun-22 16:30N 56°01' E 012°38'3 6.2
2017-Jun-22 16:00N 56°04' E 012°37'4 7.4
2017-Jun-22 15:30N 56°07' E 012°32'4 7.9
2017-Jun-22 15:00N 56°09' E 012°26'8 7.9
2017-Jun-22 14:00N 56°17' E 012°23'4 8.6
2017-Jun-22 13:30N 56°21' E 012°24'4 8.2
2017-Jun-22 13:00N 56°25' E 012°24'2 0.0
2017-Jun-20 15:02N 56°27' E 012°26'0 7.4
2017-Jun-20 15:00N 56°27' E 012°26'8 7.0
2017-Jun-20 13:55N 56°19' E 012°25'3 6.4
2017-Jun-20 13:31N 56°17' E 012°26'3 6.9
2017-Jun-20 13:01N 56°13' E 012°28'3 6.6
2017-Jun-20 12:31N 56°10' E 012°30'3 6.1
2017-Jun-20 12:01N 56°08' E 012°32'3 6.0
2017-Jun-20 11:31N 56°05' E 012°36'3 6.1
2017-Jun-20 11:01N 56°03' E 012°40'4 7.0
2017-Jun-20 10:30N 55°60' E 012°42'4 7.5
2017-Jun-20 10:01N 55°56' E 012°44'4 7.4
2017-Jun-20 09:31N 55°52' E 012°44'4 8.2
2017-Jun-20 09:00N 55°48' E 012°43'4 8.3
2017-Jun-20 08:31N 55°44' E 012°42'4 8.0
2017-Jun-20 08:01N 55°40' E 012°41'4 7.2
2017-Jun-20 07:30N 55°37' E 012°42'4 7.6
2017-Jun-20 07:01N 55°33' E 012°43'4 8.3
2017-Jun-20 06:30N 55°29' E 012°43'4 8.7
2017-Jun-20 06:01N 55°24' E 012°42'4 8.1
2017-Jun-20 05:31N 55°20' E 012°41'4 7.1
2017-Jun-20 04:59N 55°18' E 012°45'4 7.8
2017-Jun-20 04:30N 55°16' E 012°51'4 7.8
2017-Jun-20 04:00N 55°16' E 012°58'4 8.2
2017-Jun-20 03:30N 55°15' E 013°05'4 8.0
2017-Jun-20 02:59N 55°15' E 013°13'4 7.8
2017-Jun-20 02:31N 55°15' E 013°19'4 7.6
2017-Jun-20 02:00N 55°15' E 013°26'4 7.3
2017-Jun-20 01:31N 55°15' E 013°32'4 7.4
2017-Jun-20 01:00N 55°14' E 013°39'4 7.8
2017-Jun-20 00:30N 55°14' E 013°46'4 7.5
2017-Jun-20 00:00N 55°14' E 013°52'4 7.7
2017-Jun-19 23:30N 55°14' E 013°59'4 8.8
2017-Jun-19 23:01N 55°14' E 014°07'4 8.7
2017-Jun-19 22:31N 55°13' E 014°14'4 8.6
2017-Jun-19 22:01N 55°16' E 014°19'4 8.8
2017-Jun-19 21:31N 55°20' E 014°24'5 8.7
2017-Jun-19 20:58N 55°24' E 014°29'4 8.6
2017-Jun-19 20:30N 55°27' E 014°33'4 8.2
2017-Jun-19 20:01N 55°29' E 014°39'4 8.8
2017-Jun-19 19:30N 55°30' E 014°47'4 8.6
2017-Jun-19 19:01N 55°30' E 014°54'4 8.7
2017-Jun-19 18:30N 55°30' E 015°02'4 8.4
2017-Jun-19 18:00N 55°31' E 015°09'4 8.2
2017-Jun-19 17:30N 55°31' E 015°17'4 8.1
2017-Jun-19 17:00N 55°31' E 015°24'4 8.1
2017-Jun-19 16:31N 55°32' E 015°31'4 8.0
2017-Jun-19 16:01N 55°32' E 015°38'4 8.2
2017-Jun-19 15:31N 55°32' E 015°45'4 8.2
2017-Jun-19 15:01N 55°32' E 015°52'4 8.2
2017-Jun-19 14:31N 55°33' E 015°60'9 8.4
2017-Jun-19 13:29N 55°33' E 016°15'5 8.3
2017-Jun-19 12:50N 55°34' E 016°24'3 8.3
2017-Jun-19 12:30N 55°34' E 016°29'4 8.2
2017-Jun-19 12:00N 55°34' E 016°36'4 8.2
2017-Jun-19 11:30N 55°34' E 016°44'4 8.1
2017-Jun-19 10:59N 55°35' E 016°51'5 8.1
2017-Jun-19 10:24N 55°35' E 016°59'3 8.2
2017-Jun-19 10:01N 55°36' E 017°05'4 8.2
2017-Jun-19 09:31N 55°36' E 017°12'4 8.2
2017-Jun-19 09:00N 55°36' E 017°20'4 8.2
2017-Jun-19 08:31N 55°37' E 017°27'4 8.4
2017-Jun-19 08:01N 55°37' E 017°34'4 8.4
2017-Jun-19 07:31N 55°37' E 017°42'4 8.3
2017-Jun-19 07:00N 55°38' E 017°49'4 8.3
2017-Jun-19 06:31N 55°38' E 017°56'109 5.9
2017-Jun-18 11:57N 55°40' E 021°09'44 2.5
2017-Jun-17 18:25N 55°27' E 019°55'4 8.9
2017-Jun-17 18:00N 55°23' E 019°52'4 8.9
2017-Jun-17 17:30N 55°19' E 019°50'5 9.1
2017-Jun-17 16:58N 55°14' E 019°47'6 9.0
2017-Jun-17 16:16N 55°08' E 019°43'2 8.8
2017-Jun-17 16:00N 55°06' E 019°42'5 8.8
2017-Jun-17 15:29N 55°02' E 019°38'5 8.5
2017-Jun-17 14:55N 54°57' E 019°38'8 8.4
2017-Jun-17 14:00N 54°50' E 019°38'4 8.5
2017-Jun-17 13:30N 54°46' E 019°39'4 6.0
2017-Jun-17 12:52N 54°43' E 019°43'8 8.2
2017-Jun-17 11:55N 54°38' E 019°54'20 0.6
2017-Jun-16 01:17N 54°42' E 020°28'0 0.0
2017-Jun-16 00:59N 54°42' E 020°28'0 0.0
2017-Jun-16 00:08N 54°42' E 020°28'1 0.1
2017-Jun-15 04:46N 54°42' E 020°26'2 5.9
2017-Jun-15 04:29N 54°41' E 020°23'7 5.0
2017-Jun-15 03:02N 54°41' E 020°11'0 2.3
2017-Jun-15 03:01N 54°41' E 020°10'1 2.3
2017-Jun-15 02:28N 54°40' E 020°09'2 3.3
2017-Jun-15 01:59N 54°39' E 020°07'3 5.9
2017-Jun-15 01:30N 54°39' E 020°02'3 6.4
2017-Jun-15 01:00N 54°38' E 019°57'4 5.4
2017-Jun-15 00:16N 54°40' E 019°50'1 3.3
2017-Jun-15 00:00N 54°39' E 019°49'0 0.2
2017-Jun-14 23:26N 54°39' E 019°49'0 0.0
2017-Jun-14 22:56N 54°39' E 019°49'0 0.0
2017-Jun-14 22:29N 54°39' E 019°49'0 0.0
2017-Jun-14 21:56N 54°39' E 019°49'0 0.0
2017-Jun-14 20:50N 54°39' E 019°49'0 0.0
2017-Jun-14 20:23N 54°39' E 019°49'0 0.0
2017-Jun-14 19:56N 54°39' E 019°49'0 0.0
2017-Jun-14 18:17N 54°39' E 019°49'0 0.0
2017-Jun-14 17:44N 54°39' E 019°49'0 0.0
2017-Jun-14 17:08N 54°39' E 019°49'0 0.0
2017-Jun-14 16:50N 54°39' E 019°49'0 0.0
2017-Jun-14 16:29N 54°39' E 019°49'0 0.9
2017-Jun-14 15:58N 54°40' E 019°48'4 7.6
2017-Jun-14 15:28N 54°41' E 019°42'0 0.7
2017-Jun-14 15:00N 54°41' E 019°42'0 0.2
2017-Jun-14 14:00N 54°41' E 019°42'0 0.6
2017-Jun-14 13:30N 54°41' E 019°42'0 0.1
2017-Jun-14 13:00N 54°41' E 019°42'0 0.6
2017-Jun-14 12:30N 54°41' E 019°42'0 0.7
2017-Jun-14 12:00N 54°41' E 019°42'0 0.7
2017-Jun-14 11:31N 54°42' E 019°42'0 0.7
2017-Jun-14 11:00N 54°42' E 019°42'0 0.2
2017-Jun-14 10:30N 54°42' E 019°42'1 1.2
2017-Jun-14 09:59N 54°42' E 019°41'3 5.9
2017-Jun-14 09:30N 54°44' E 019°37'3 6.1
2017-Jun-14 09:00N 54°45' E 019°33'6 6.3
2017-Jun-14 08:00N 54°48' E 019°23'3 6.1
2017-Jun-14 07:30N 54°50' E 019°19'4 7.1
2017-Jun-14 07:00N 54°53' E 019°17'4 7.8
2017-Jun-14 06:30N 54°57' E 019°14'4 8.1
2017-Jun-14 06:00N 55°01' E 019°11'4 8.5
2017-Jun-14 05:31N 55°04' E 019°08'4 8.6
2017-Jun-14 05:00N 55°08' E 019°04'4 8.5
2017-Jun-14 04:30N 55°12' E 019°01'4 8.6
2017-Jun-14 04:00N 55°16' E 018°58'4 8.7
2017-Jun-14 03:30N 55°20' E 018°55'5 9.2
2017-Jun-14 03:00N 55°24' E 018°52'5 9.0
2017-Jun-14 02:30N 55°29' E 018°49'5 9.0
2017-Jun-14 02:00N 55°33' E 018°46'5 9.2
2017-Jun-14 01:30N 55°37' E 018°42'5 8.9
2017-Jun-14 00:55N 55°42' E 018°38'6 8.5
2017-Jun-14 00:10N 55°47' E 018°34'1 8.9
2017-Jun-14 00:00N 55°49' E 018°33'4 8.8
2017-Jun-13 23:30N 55°53' E 018°30'5 8.9
2017-Jun-13 22:59N 55°57' E 018°26'  
Track history (hours):
 
Tides and Currents Weather Stations Pressure Air Temp Water Temp Dewpoint Dewpoint Depression Visibility Wind Speed Wind Dir Waves Ship Positions

Lehmann Sound

Last reported at 2017-Jun-23 22:24 UTC. Time now 2017-Jun-25 14:07 UTC.
Position N 55°37' E 018°47'.

Length 90 m; draft 4 m.

Type: Cargo ship. MMSI: 305476000.

Date/timePositionNaut miles runAvg speedWind from/ knotsBaromVisibWave heightAir tempDewpointWater temp
2017-Jun-23 22:24N 55°37' E 018°47'4 9.0
2017-Jun-23 21:56N 55°37' E 018°39'5 9.5
2017-Jun-23 21:23N 55°36' E 018°30'4 9.5
2017-Jun-23 21:01N 55°36' E 018°24'5 9.6
2017-Jun-23 20:29N 55°35' E 018°15'5 9.6
2017-Jun-23 20:00N 55°35' E 018°07'5 9.5
2017-Jun-23 19:30N 55°35' E 017°58'5 9.4
2017-Jun-23 19:00N 55°34' E 017°50'5 9.3
2017-Jun-23 18:30N 55°33' E 017°42'5 9.2
2017-Jun-23 18:00N 55°33' E 017°34'4 9.0
2017-Jun-23 17:30N 55°32' E 017°26'4 9.0
2017-Jun-23 17:00N 55°32' E 017°18'5 9.0
2017-Jun-23 16:30N 55°32' E 017°10'4 9.0
2017-Jun-23 16:00N 55°31' E 017°02'4 9.0
2017-Jun-23 15:30N 55°31' E 016°54'5 9.0
2017-Jun-23 15:00N 55°30' E 016°47'9 9.1
2017-Jun-23 14:00N 55°29' E 016°31'5 9.1
2017-Jun-23 13:30N 55°29' E 016°23'5 9.1
2017-Jun-23 13:00N 55°28' E 016°15'5 9.2
2017-Jun-23 12:26N 55°28' E 016°05'4 9.3
2017-Jun-23 12:00N 55°27' E 015°59'5 9.1
2017-Jun-23 11:30N 55°27' E 015°51'4 9.0
2017-Jun-23 11:00N 55°27' E 015°43'4 8.8
2017-Jun-23 10:30N 55°26' E 015°35'4 8.8
2017-Jun-23 10:00N 55°26' E 015°27'4 8.9
2017-Jun-23 09:30N 55°25' E 015°19'4 9.0
2017-Jun-23 09:00N 55°25' E 015°12'4 8.8
2017-Jun-23 08:30N 55°24' E 015°04'4 8.8
2017-Jun-23 08:00N 55°24' E 014°56'4 8.7
2017-Jun-23 07:30N 55°23' E 014°49'4 8.6
2017-Jun-23 07:00N 55°23' E 014°41'4 8.4
2017-Jun-23 06:30N 55°20' E 014°36'4 8.8
2017-Jun-23 06:00N 55°17' E 014°30'4 8.9
2017-Jun-23 05:30N 55°14' E 014°25'4 8.5
2017-Jun-23 05:00N 55°11' E 014°19'4 7.7
2017-Jun-23 04:30N 55°09' E 014°14'4 8.3
2017-Jun-23 04:00N 55°10' E 014°07'4 8.4
2017-Jun-23 03:30N 55°10' E 013°59'4 8.2
2017-Jun-23 03:00N 55°11' E 013°52'5 8.2
2017-Jun-23 02:24N 55°11' E 013°43'3 8.3
2017-Jun-23 02:00N 55°11' E 013°38'4 8.4
2017-Jun-23 01:29N 55°12' E 013°30'4 8.6
2017-Jun-23 01:00N 55°13' E 013°23'4 8.6
2017-Jun-23 00:30N 55°13' E 013°15'4 8.6
2017-Jun-23 00:00N 55°13' E 013°08'4 8.6
2017-Jun-22 23:30N 55°14' E 013°00'4 8.4
2017-Jun-22 23:01N 55°15' E 012°53'4 8.5
2017-Jun-22 22:30N 55°16' E 012°46'4 8.5
2017-Jun-22 22:00N 55°18' E 012°39'4 7.7
2017-Jun-22 21:30N 55°22' E 012°39'4 8.7
2017-Jun-22 21:00N 55°26' E 012°40'4 8.2
2017-Jun-22 20:30N 55°30' E 012°41'4 7.9
2017-Jun-22 20:00N 55°34' E 012°42'4 7.7
2017-Jun-22 19:30N 55°38' E 012°42'4 7.6
2017-Jun-22 19:00N 55°41' E 012°41'4 7.9
2017-Jun-22 18:30N 55°45' E 012°41'4 8.3
2017-Jun-22 18:00N 55°50' E 012°41'4 8.3
2017-Jun-22 17:30N 55°53' E 012°39'4 7.9
2017-Jun-22 17:00N 55°57' E 012°38'4 7.7
2017-Jun-22 16:30N 56°01' E 012°38'3 6.2
2017-Jun-22 16:00N 56°04' E 012°37'4 7.4
2017-Jun-22 15:30N 56°07' E 012°32'4 7.9
2017-Jun-22 15:00N 56°09' E 012°26'8 7.9
2017-Jun-22 14:00N 56°17' E 012°23'4 8.6
2017-Jun-22 13:30N 56°21' E 012°24'4 8.2
2017-Jun-22 13:00N 56°25' E 012°24'2 0.0
2017-Jun-20 15:02N 56°27' E 012°26'0 7.4
2017-Jun-20 15:00N 56°27' E 012°26'8 7.0
2017-Jun-20 13:55N 56°19' E 012°25'3 6.4
2017-Jun-20 13:31N 56°17' E 012°26'3 6.9
2017-Jun-20 13:01N 56°13' E 012°28'3 6.6
2017-Jun-20 12:31N 56°10' E 012°30'3 6.1
2017-Jun-20 12:01N 56°08' E 012°32'3 6.0
2017-Jun-20 11:31N 56°05' E 012°36'3 6.1
2017-Jun-20 11:01N 56°03' E 012°40'4 7.0
2017-Jun-20 10:30N 55°60' E 012°42'4 7.5
2017-Jun-20 10:01N 55°56' E 012°44'4 7.4
2017-Jun-20 09:31N 55°52' E 012°44'4 8.2
2017-Jun-20 09:00N 55°48' E 012°43'4 8.3
2017-Jun-20 08:31N 55°44' E 012°42'4 8.0
2017-Jun-20 08:01N 55°40' E 012°41'4 7.2
2017-Jun-20 07:30N 55°37' E 012°42'4 7.6
2017-Jun-20 07:01N 55°33' E 012°43'4 8.3
2017-Jun-20 06:30N 55°29' E 012°43'4 8.7
2017-Jun-20 06:01N 55°24' E 012°42'4 8.1
2017-Jun-20 05:31N 55°20' E 012°41'4 7.1
2017-Jun-20 04:59N 55°18' E 012°45'4 7.8
2017-Jun-20 04:30N 55°16' E 012°51'4 7.8
2017-Jun-20 04:00N 55°16' E 012°58'4 8.2
2017-Jun-20 03:30N 55°15' E 013°05'4 8.0
2017-Jun-20 02:59N 55°15' E 013°13'4 7.8
2017-Jun-20 02:31N 55°15' E 013°19'4 7.6
2017-Jun-20 02:00N 55°15' E 013°26'4 7.3
2017-Jun-20 01:31N 55°15' E 013°32'4 7.4
2017-Jun-20 01:00N 55°14' E 013°39'4 7.8
2017-Jun-20 00:30N 55°14' E 013°46'4 7.5
2017-Jun-20 00:00N 55°14' E 013°52'4 7.7
2017-Jun-19 23:30N 55°14' E 013°59'4 8.8
2017-Jun-19 23:01N 55°14' E 014°07'4 8.7
2017-Jun-19 22:31N 55°13' E 014°14'4 8.6
2017-Jun-19 22:01N 55°16' E 014°19'4 8.8
2017-Jun-19 21:31N 55°20' E 014°24'5 8.7
2017-Jun-19 20:58N 55°24' E 014°29'4 8.6
2017-Jun-19 20:30N 55°27' E 014°33'4 8.2
2017-Jun-19 20:01N 55°29' E 014°39'4 8.8
2017-Jun-19 19:30N 55°30' E 014°47'4 8.6
2017-Jun-19 19:01N 55°30' E 014°54'4 8.7
2017-Jun-19 18:30N 55°30' E 015°02'4 8.4
2017-Jun-19 18:00N 55°31' E 015°09'4 8.2
2017-Jun-19 17:30N 55°31' E 015°17'4 8.1
2017-Jun-19 17:00N 55°31' E 015°24'4 8.1
2017-Jun-19 16:31N 55°32' E 015°31'4 8.0
2017-Jun-19 16:01N 55°32' E 015°38'4 8.2
2017-Jun-19 15:31N 55°32' E 015°45'4 8.2
2017-Jun-19 15:01N 55°32' E 015°52'4 8.2
2017-Jun-19 14:31N 55°33' E 015°60'9 8.4
2017-Jun-19 13:29N 55°33' E 016°15'5 8.3
2017-Jun-19 12:50N 55°34' E 016°24'3 8.3
2017-Jun-19 12:30N 55°34' E 016°29'4 8.2
2017-Jun-19 12:00N 55°34' E 016°36'4 8.2
2017-Jun-19 11:30N 55°34' E 016°44'4 8.1
2017-Jun-19 10:59N 55°35' E 016°51'5 8.1
2017-Jun-19 10:24N 55°35' E 016°59'3 8.2
2017-Jun-19 10:01N 55°36' E 017°05'4 8.2
2017-Jun-19 09:31N 55°36' E 017°12'4 8.2
2017-Jun-19 09:00N 55°36' E 017°20'4 8.2
2017-Jun-19 08:31N 55°37' E 017°27'4 8.4
2017-Jun-19 08:01N 55°37' E 017°34'4 8.4
2017-Jun-19 07:31N 55°37' E 017°42'4 8.3
2017-Jun-19 07:00N 55°38' E 017°49'4 8.3
2017-Jun-19 06:31N 55°38' E 017°56'109 5.9
2017-Jun-18 11:57N 55°40' E 021°09'44 2.5
2017-Jun-17 18:25N 55°27' E 019°55'4 8.9
2017-Jun-17 18:00N 55°23' E 019°52'4 8.9
2017-Jun-17 17:30N 55°19' E 019°50'5 9.1
2017-Jun-17 16:58N 55°14' E 019°47'6 9.0
2017-Jun-17 16:16N 55°08' E 019°43'2 8.8
2017-Jun-17 16:00N 55°06' E 019°42'5 8.8
2017-Jun-17 15:29N 55°02' E 019°38'5 8.5
2017-Jun-17 14:55N 54°57' E 019°38'8 8.4
2017-Jun-17 14:00N 54°50' E 019°38'4 8.5
2017-Jun-17 13:30N 54°46' E 019°39'4 6.0
2017-Jun-17 12:52N 54°43' E 019°43'8 8.2
2017-Jun-17 11:55N 54°38' E 019°54'20 0.6
2017-Jun-16 01:17N 54°42' E 020°28'0 0.0
2017-Jun-16 00:59N 54°42' E 020°28'0 0.0
2017-Jun-16 00:08N 54°42' E 020°28'1 0.1
2017-Jun-15 04:46N 54°42' E 020°26'2 5.9
2017-Jun-15 04:29N 54°41' E 020°23'7 5.0
2017-Jun-15 03:02N 54°41' E 020°11'0 2.3
2017-Jun-15 03:01N 54°41' E 020°10'1 2.3
2017-Jun-15 02:28N 54°40' E 020°09'2 3.3
2017-Jun-15 01:59N 54°39' E 020°07'3 5.9
2017-Jun-15 01:30N 54°39' E 020°02'3 6.4
2017-Jun-15 01:00N 54°38' E 019°57'4 5.4
2017-Jun-15 00:16N 54°40' E 019°50'1 3.3
2017-Jun-15 00:00N 54°39' E 019°49'0 0.2
2017-Jun-14 23:26N 54°39' E 019°49'0 0.0
2017-Jun-14 22:56N 54°39' E 019°49'0 0.0
2017-Jun-14 22:29N 54°39' E 019°49'0 0.0
2017-Jun-14 21:56N 54°39' E 019°49'0 0.0
2017-Jun-14 20:50N 54°39' E 019°49'0 0.0
2017-Jun-14 20:23N 54°39' E 019°49'0 0.0
2017-Jun-14 19:56N 54°39' E 019°49'0 0.0
2017-Jun-14 18:17N 54°39' E 019°49'0 0.0
2017-Jun-14 17:44N 54°39' E 019°49'0 0.0
2017-Jun-14 17:08N 54°39' E 019°49'0 0.0
2017-Jun-14 16:50N 54°39' E 019°49'0 0.0
2017-Jun-14 16:29N 54°39' E 019°49'0 0.9
2017-Jun-14 15:58N 54°40' E 019°48'4 7.6
2017-Jun-14 15:28N 54°41' E 019°42'0 0.7
2017-Jun-14 15:00N 54°41' E 019°42'0 0.2
2017-Jun-14 14:00N 54°41' E 019°42'0 0.6
2017-Jun-14 13:30N 54°41' E 019°42'0 0.1
2017-Jun-14 13:00N 54°41' E 019°42'0 0.6
2017-Jun-14 12:30N 54°41' E 019°42'0 0.7
2017-Jun-14 12:00N 54°41' E 019°42'0 0.7
2017-Jun-14 11:31N 54°42' E 019°42'0 0.7
2017-Jun-14 11:00N 54°42' E 019°42'0 0.2
2017-Jun-14 10:30N 54°42' E 019°42'1 1.2
2017-Jun-14 09:59N 54°42' E 019°41'3 5.9
2017-Jun-14 09:30N 54°44' E 019°37'3 6.1
2017-Jun-14 09:00N 54°45' E 019°33'6 6.3
2017-Jun-14 08:00N 54°48' E 019°23'3 6.1
2017-Jun-14 07:30N 54°50' E 019°19'4 7.1
2017-Jun-14 07:00N 54°53' E 019°17'4 7.8
2017-Jun-14 06:30N 54°57' E 019°14'4 8.1
2017-Jun-14 06:00N 55°01' E 019°11'4 8.5
2017-Jun-14 05:31N 55°04' E 019°08'4 8.6
2017-Jun-14 05:00N 55°08' E 019°04'4 8.5
2017-Jun-14 04:30N 55°12' E 019°01'4 8.6
2017-Jun-14 04:00N 55°16' E 018°58'4 8.7
2017-Jun-14 03:30N 55°20' E 018°55'5 9.2
2017-Jun-14 03:00N 55°24' E 018°52'5 9.0
2017-Jun-14 02:30N 55°29' E 018°49'5 9.0
2017-Jun-14 02:00N 55°33' E 018°46'5 9.2
2017-Jun-14 01:30N 55°37' E 018°42'5 8.9
2017-Jun-14 00:55N 55°42' E 018°38'6 8.5
2017-Jun-14 00:10N 55°47' E 018°34'1 8.9
2017-Jun-14 00:00N 55°49' E 018°33'4 8.8
2017-Jun-13 23:30N 55°53' E 018°30'5 8.9
2017-Jun-13 22:59N 55°57' E 018°26'  

Dump ship's entire track history